sensor_id;sensor_type;location;lat;lon;timestamp;P1;durP1;ratioP1;P2;durP2;ratioP2
65656;SDS011;57397;50.096;14.404;2022-10-16T00:02:21;2.03;;;1.60;;
65656;SDS011;57397;50.096;14.404;2022-10-16T00:04:49;2.33;;;1.73;;
65656;SDS011;57397;50.096;14.404;2022-10-16T00:07:15;3.08;;;1.70;;
65656;SDS011;57397;50.096;14.404;2022-10-16T00:09:40;2.67;;;1.80;;
65656;SDS011;57397;50.096;14.404;2022-10-16T00:12:06;3.08;;;1.70;;
65656;SDS011;57397;50.096;14.404;2022-10-16T00:14:32;2.55;;;1.70;;
65656;SDS011;57397;50.096;14.404;2022-10-16T00:17:00;2.10;;;1.50;;
65656;SDS011;57397;50.096;14.404;2022-10-16T00:19:26;2.42;;;1.50;;
65656;SDS011;57397;50.096;14.404;2022-10-16T00:21:51;2.10;;;1.70;;
65656;SDS011;57397;50.096;14.404;2022-10-16T00:24:17;2.28;;;1.60;;
65656;SDS011;57397;50.096;14.404;2022-10-16T00:26:42;2.20;;;1.70;;
65656;SDS011;57397;50.096;14.404;2022-10-16T00:29:08;2.08;;;1.55;;
65656;SDS011;57397;50.096;14.404;2022-10-16T00:31:34;2.20;;;1.80;;
65656;SDS011;57397;50.096;14.404;2022-10-16T00:34:00;2.47;;;1.65;;
65656;SDS011;57397;50.096;14.404;2022-10-16T00:36:26;2.30;;;1.73;;
65656;SDS011;57397;50.096;14.404;2022-10-16T00:38:54;2.72;;;1.65;;
65656;SDS011;57397;50.096;14.404;2022-10-16T00:41:23;3.97;;;2.60;;
65656;SDS011;57397;50.096;14.404;2022-10-16T00:43:53;3.22;;;2.00;;
65656;SDS011;57397;50.096;14.404;2022-10-16T00:46:21;2.35;;;1.70;;
65656;SDS011;57397;50.096;14.404;2022-10-16T00:51:50;3.47;;;1.77;;
65656;SDS011;57397;50.096;14.404;2022-10-16T00:54:19;2.72;;;1.77;;
65656;SDS011;57397;50.096;14.404;2022-10-16T00:56:46;2.70;;;2.00;;
65656;SDS011;57397;50.096;14.404;2022-10-16T00:59:29;2.55;;;1.65;;
65656;SDS011;57397;50.096;14.404;2022-10-16T01:01:56;3.38;;;2.03;;
65656;SDS011;57397;50.096;14.404;2022-10-16T01:04:23;2.85;;;1.70;;
65656;SDS011;57397;50.096;14.404;2022-10-16T01:06:51;2.25;;;1.60;;
65656;SDS011;57397;50.096;14.404;2022-10-16T01:12:33;3.20;;;1.70;;
65656;SDS011;57397;50.096;14.404;2022-10-16T01:15:10;3.05;;;1.77;;
65656;SDS011;57397;50.096;14.404;2022-10-16T01:18:22;2.08;;;1.60;;
65656;SDS011;57397;50.096;14.404;2022-10-16T01:21:01;4.03;;;1.77;;
65656;SDS011;57397;50.096;14.404;2022-10-16T01:23:48;1.90;;;1.42;;
65656;SDS011;57397;50.096;14.404;2022-10-16T01:29:25;2.88;;;1.60;;
65656;SDS011;57397;50.096;14.404;2022-10-16T01:34:25;2.83;;;1.80;;
65656;SDS011;57397;50.096;14.404;2022-10-16T01:37:02;3.97;;;1.80;;
65656;SDS011;57397;50.096;14.404;2022-10-16T01:39:31;2.22;;;1.70;;
65656;SDS011;57397;50.096;14.404;2022-10-16T01:42:01;2.45;;;1.70;;
65656;SDS011;57397;50.096;14.404;2022-10-16T01:44:35;2.47;;;1.70;;
65656;SDS011;57397;50.096;14.404;2022-10-16T01:47:01;2.65;;;1.80;;
65656;SDS011;57397;50.096;14.404;2022-10-16T01:49:29;2.30;;;1.60;;
65656;SDS011;57397;50.096;14.404;2022-10-16T01:51:57;2.40;;;1.60;;
65656;SDS011;57397;50.096;14.404;2022-10-16T01:54:28;2.53;;;1.67;;
65656;SDS011;57397;50.096;14.404;2022-10-16T01:56:55;2.75;;;1.73;;
65656;SDS011;57397;50.096;14.404;2022-10-16T01:59:21;2.67;;;1.75;;
65656;SDS011;57397;50.096;14.404;2022-10-16T02:01:51;2.15;;;1.65;;
65656;SDS011;57397;50.096;14.404;2022-10-16T02:07:12;2.20;;;1.65;;
65656;SDS011;57397;50.096;14.404;2022-10-16T02:09:38;2.10;;;1.80;;
65656;SDS011;57397;50.096;14.404;2022-10-16T02:12:14;2.97;;;2.00;;
65656;SDS011;57397;50.096;14.404;2022-10-16T02:14:44;3.17;;;1.55;;
65656;SDS011;57397;50.096;14.404;2022-10-16T02:17:14;2.85;;;1.70;;
65656;SDS011;57397;50.096;14.404;2022-10-16T02:19:42;1.90;;;1.70;;
65656;SDS011;57397;50.096;14.404;2022-10-16T02:22:08;2.55;;;1.90;;
65656;SDS011;57397;50.096;14.404;2022-10-16T02:24:41;2.05;;;1.60;;
65656;SDS011;57397;50.096;14.404;2022-10-16T02:27:11;1.80;;;1.60;;
65656;SDS011;57397;50.096;14.404;2022-10-16T02:29:40;2.45;;;1.63;;
65656;SDS011;57397;50.096;14.404;2022-10-16T02:32:15;2.05;;;1.70;;
65656;SDS011;57397;50.096;14.404;2022-10-16T02:34:44;2.63;;;1.50;;
65656;SDS011;57397;50.096;14.404;2022-10-16T02:37:11;2.10;;;1.63;;
65656;SDS011;57397;50.096;14.404;2022-10-16T02:39:36;2.58;;;1.55;;
65656;SDS011;57397;50.096;14.404;2022-10-16T02:42:03;1.60;;;1.35;;
65656;SDS011;57397;50.096;14.404;2022-10-16T02:44:29;2.92;;;1.70;;
65656;SDS011;57397;50.096;14.404;2022-10-16T02:46:54;2.10;;;1.48;;
65656;SDS011;57397;50.096;14.404;2022-10-16T02:49:20;2.17;;;1.70;;
65656;SDS011;57397;50.096;14.404;2022-10-16T02:51:45;2.60;;;1.83;;
65656;SDS011;57397;50.096;14.404;2022-10-16T02:54:11;2.45;;;1.80;;
65656;SDS011;57397;50.096;14.404;2022-10-16T02:56:38;2.17;;;1.67;;
65656;SDS011;57397;50.096;14.404;2022-10-16T02:59:03;2.08;;;1.48;;
65656;SDS011;57397;50.096;14.404;2022-10-16T03:01:29;1.95;;;1.50;;
65656;SDS011;57397;50.096;14.404;2022-10-16T03:03:54;1.67;;;1.45;;
65656;SDS011;57397;50.096;14.404;2022-10-16T03:06:20;1.95;;;1.60;;
65656;SDS011;57397;50.096;14.404;2022-10-16T03:08:46;1.48;;;1.25;;
65656;SDS011;57397;50.096;14.404;2022-10-16T03:11:11;1.85;;;1.50;;
65656;SDS011;57397;50.096;14.404;2022-10-16T03:13:36;2.40;;;1.55;;
65656;SDS011;57397;50.096;14.404;2022-10-16T03:16:02;2.17;;;1.50;;
65656;SDS011;57397;50.096;14.404;2022-10-16T03:18:28;2.30;;;1.50;;
65656;SDS011;57397;50.096;14.404;2022-10-16T03:20:53;1.90;;;1.45;;
65656;SDS011;57397;50.096;14.404;2022-10-16T03:23:19;2.55;;;1.60;;
65656;SDS011;57397;50.096;14.404;2022-10-16T03:25:44;2.05;;;1.63;;
65656;SDS011;57397;50.096;14.404;2022-10-16T03:28:09;3.35;;;1.50;;
65656;SDS011;57397;50.096;14.404;2022-10-16T03:30:35;2.35;;;1.50;;
65656;SDS011;57397;50.096;14.404;2022-10-16T03:33:00;2.28;;;1.55;;
65656;SDS011;57397;50.096;14.404;2022-10-16T03:35:26;2.85;;;1.30;;
65656;SDS011;57397;50.096;14.404;2022-10-16T03:37:51;1.95;;;1.30;;
65656;SDS011;57397;50.096;14.404;2022-10-16T03:40:17;1.88;;;1.50;;
65656;SDS011;57397;50.096;14.404;2022-10-16T03:42:43;1.80;;;1.52;;
65656;SDS011;57397;50.096;14.404;2022-10-16T03:45:09;1.70;;;1.50;;
65656;SDS011;57397;50.096;14.404;2022-10-16T03:47:35;3.45;;;1.60;;
65656;SDS011;57397;50.096;14.404;2022-10-16T03:50:01;1.73;;;1.40;;
65656;SDS011;57397;50.096;14.404;2022-10-16T03:52:27;2.08;;;1.55;;
65656;SDS011;57397;50.096;14.404;2022-10-16T03:54:52;2.78;;;1.50;;
65656;SDS011;57397;50.096;14.404;2022-10-16T03:57:18;3.78;;;1.60;;
65656;SDS011;57397;50.096;14.404;2022-10-16T03:59:43;2.00;;;1.50;;
65656;SDS011;57397;50.096;14.404;2022-10-16T04:02:09;1.88;;;1.50;;
65656;SDS011;57397;50.096;14.404;2022-10-16T04:04:35;3.33;;;1.40;;
65656;SDS011;57397;50.096;14.404;2022-10-16T04:07:01;2.45;;;1.88;;
65656;SDS011;57397;50.096;14.404;2022-10-16T04:09:26;2.10;;;1.50;;
65656;SDS011;57397;50.096;14.404;2022-10-16T04:11:52;2.08;;;1.60;;
65656;SDS011;57397;50.096;14.404;2022-10-16T04:14:18;2.67;;;1.60;;
65656;SDS011;57397;50.096;14.404;2022-10-16T04:16:43;2.60;;;1.50;;
65656;SDS011;57397;50.096;14.404;2022-10-16T04:19:09;2.10;;;1.35;;
65656;SDS011;57397;50.096;14.404;2022-10-16T04:21:35;1.77;;;1.25;;
65656;SDS011;57397;50.096;14.404;2022-10-16T04:24:01;1.73;;;1.50;;
65656;SDS011;57397;50.096;14.404;2022-10-16T04:26:27;2.35;;;1.55;;
65656;SDS011;57397;50.096;14.404;2022-10-16T04:28:52;1.95;;;1.40;;
65656;SDS011;57397;50.096;14.404;2022-10-16T04:31:18;2.20;;;1.60;;
65656;SDS011;57397;50.096;14.404;2022-10-16T04:33:44;1.80;;;1.52;;
65656;SDS011;57397;50.096;14.404;2022-10-16T04:36:10;2.08;;;1.30;;
65656;SDS011;57397;50.096;14.404;2022-10-16T04:38:35;2.25;;;1.70;;
65656;SDS011;57397;50.096;14.404;2022-10-16T04:41:02;2.75;;;1.52;;
65656;SDS011;57397;50.096;14.404;2022-10-16T04:43:28;2.40;;;1.48;;
65656;SDS011;57397;50.096;14.404;2022-10-16T04:45:54;1.85;;;1.40;;
65656;SDS011;57397;50.096;14.404;2022-10-16T04:48:21;1.90;;;1.50;;
65656;SDS011;57397;50.096;14.404;2022-10-16T04:50:47;2.63;;;1.60;;
65656;SDS011;57397;50.096;14.404;2022-10-16T04:53:12;2.70;;;1.35;;
65656;SDS011;57397;50.096;14.404;2022-10-16T04:55:38;3.03;;;1.75;;
65656;SDS011;57397;50.096;14.404;2022-10-16T04:58:03;1.98;;;1.45;;
65656;SDS011;57397;50.096;14.404;2022-10-16T05:00:29;3.25;;;1.52;;
65656;SDS011;57397;50.096;14.404;2022-10-16T05:02:55;1.98;;;1.50;;
65656;SDS011;57397;50.096;14.404;2022-10-16T05:05:20;1.67;;;1.42;;
65656;SDS011;57397;50.096;14.404;2022-10-16T05:07:46;2.40;;;1.52;;
65656;SDS011;57397;50.096;14.404;2022-10-16T05:10:12;2.03;;;1.42;;
65656;SDS011;57397;50.096;14.404;2022-10-16T05:12:38;1.50;;;1.30;;
65656;SDS011;57397;50.096;14.404;2022-10-16T05:15:04;2.45;;;1.77;;
65656;SDS011;57397;50.096;14.404;2022-10-16T05:17:30;2.72;;;1.50;;
65656;SDS011;57397;50.096;14.404;2022-10-16T05:19:55;2.55;;;1.50;;
65656;SDS011;57397;50.096;14.404;2022-10-16T05:22:21;1.63;;;1.40;;
65656;SDS011;57397;50.096;14.404;2022-10-16T05:24:46;1.45;;;1.30;;
65656;SDS011;57397;50.096;14.404;2022-10-16T05:27:12;1.75;;;1.60;;
65656;SDS011;57397;50.096;14.404;2022-10-16T05:29:44;1.75;;;1.48;;
65656;SDS011;57397;50.096;14.404;2022-10-16T05:32:11;3.58;;;1.70;;
65656;SDS011;57397;50.096;14.404;2022-10-16T05:34:36;1.85;;;1.40;;
65656;SDS011;57397;50.096;14.404;2022-10-16T05:37:02;3.53;;;1.38;;
65656;SDS011;57397;50.096;14.404;2022-10-16T05:39:27;2.92;;;1.58;;
65656;SDS011;57397;50.096;14.404;2022-10-16T05:41:53;3.65;;;1.63;;
65656;SDS011;57397;50.096;14.404;2022-10-16T05:44:18;2.17;;;1.30;;
65656;SDS011;57397;50.096;14.404;2022-10-16T05:46:45;2.10;;;1.58;;
65656;SDS011;57397;50.096;14.404;2022-10-16T05:49:11;2.20;;;1.38;;
65656;SDS011;57397;50.096;14.404;2022-10-16T05:51:36;4.10;;;1.50;;
65656;SDS011;57397;50.096;14.404;2022-10-16T05:54:02;2.90;;;1.42;;
65656;SDS011;57397;50.096;14.404;2022-10-16T05:56:27;2.05;;;1.60;;
65656;SDS011;57397;50.096;14.404;2022-10-16T05:58:53;1.83;;;1.52;;
65656;SDS011;57397;50.096;14.404;2022-10-16T06:01:19;2.20;;;1.55;;
65656;SDS011;57397;50.096;14.404;2022-10-16T06:03:46;1.63;;;1.30;;
65656;SDS011;57397;50.096;14.404;2022-10-16T06:06:13;2.20;;;1.40;;
65656;SDS011;57397;50.096;14.404;2022-10-16T06:08:40;1.85;;;1.38;;
65656;SDS011;57397;50.096;14.404;2022-10-16T06:11:08;2.50;;;1.50;;
65656;SDS011;57397;50.096;14.404;2022-10-16T06:13:34;2.13;;;1.40;;
65656;SDS011;57397;50.096;14.404;2022-10-16T06:16:00;1.90;;;1.50;;
65656;SDS011;57397;50.096;14.404;2022-10-16T06:18:27;2.88;;;1.48;;
65656;SDS011;57397;50.096;14.404;2022-10-16T06:20:53;1.85;;;1.30;;
65656;SDS011;57397;50.096;14.404;2022-10-16T06:23:20;2.17;;;1.67;;
65656;SDS011;57397;50.096;14.404;2022-10-16T06:25:45;1.83;;;1.50;;
65656;SDS011;57397;50.096;14.404;2022-10-16T06:28:15;2.30;;;1.45;;
65656;SDS011;57397;50.096;14.404;2022-10-16T06:30:41;2.22;;;1.48;;
65656;SDS011;57397;50.096;14.404;2022-10-16T06:33:09;4.22;;;2.05;;
65656;SDS011;57397;50.096;14.404;2022-10-16T06:35:35;2.75;;;2.15;;
65656;SDS011;57397;50.096;14.404;2022-10-16T06:38:01;2.47;;;1.80;;
65656;SDS011;57397;50.096;14.404;2022-10-16T06:40:27;3.22;;;2.10;;
65656;SDS011;57397;50.096;14.404;2022-10-16T06:42:57;3.28;;;2.10;;
65656;SDS011;57397;50.096;14.404;2022-10-16T06:45:22;2.45;;;2.03;;
65656;SDS011;57397;50.096;14.404;2022-10-16T06:47:48;3.10;;;2.10;;
65656;SDS011;57397;50.096;14.404;2022-10-16T06:50:14;2.38;;;1.75;;
65656;SDS011;57397;50.096;14.404;2022-10-16T06:52:39;3.28;;;2.20;;
65656;SDS011;57397;50.096;14.404;2022-10-16T06:55:05;3.17;;;1.90;;
65656;SDS011;57397;50.096;14.404;2022-10-16T06:57:31;2.90;;;2.08;;
65656;SDS011;57397;50.096;14.404;2022-10-16T06:59:57;2.72;;;1.85;;
65656;SDS011;57397;50.096;14.404;2022-10-16T07:02:22;3.35;;;1.90;;
65656;SDS011;57397;50.096;14.404;2022-10-16T07:04:48;2.80;;;1.95;;
65656;SDS011;57397;50.096;14.404;2022-10-16T07:07:13;2.90;;;1.95;;
65656;SDS011;57397;50.096;14.404;2022-10-16T07:09:40;3.97;;;2.08;;
65656;SDS011;57397;50.096;14.404;2022-10-16T07:12:05;2.60;;;2.08;;
65656;SDS011;57397;50.096;14.404;2022-10-16T07:14:31;2.85;;;2.17;;
65656;SDS011;57397;50.096;14.404;2022-10-16T07:16:56;3.55;;;2.20;;
65656;SDS011;57397;50.096;14.404;2022-10-16T07:19:23;3.17;;;2.00;;
65656;SDS011;57397;50.096;14.404;2022-10-16T07:21:53;3.05;;;2.22;;
65656;SDS011;57397;50.096;14.404;2022-10-16T07:24:22;2.63;;;1.95;;
65656;SDS011;57397;50.096;14.404;2022-10-16T07:26:51;4.85;;;2.22;;
65656;SDS011;57397;50.096;14.404;2022-10-16T07:29:21;3.55;;;1.90;;
65656;SDS011;57397;50.096;14.404;2022-10-16T07:31:47;2.42;;;1.70;;
65656;SDS011;57397;50.096;14.404;2022-10-16T07:34:14;2.58;;;1.98;;
65656;SDS011;57397;50.096;14.404;2022-10-16T07:36:40;2.67;;;1.70;;
65656;SDS011;57397;50.096;14.404;2022-10-16T07:39:06;2.85;;;1.80;;
65656;SDS011;57397;50.096;14.404;2022-10-16T07:41:31;2.65;;;1.65;;
65656;SDS011;57397;50.096;14.404;2022-10-16T07:44:02;3.08;;;1.95;;
65656;SDS011;57397;50.096;14.404;2022-10-16T07:46:28;2.08;;;1.83;;
65656;SDS011;57397;50.096;14.404;2022-10-16T07:48:54;2.42;;;1.70;;
65656;SDS011;57397;50.096;14.404;2022-10-16T07:51:23;3.08;;;1.63;;
65656;SDS011;57397;50.096;14.404;2022-10-16T07:53:50;2.10;;;1.60;;
65656;SDS011;57397;50.096;14.404;2022-10-16T07:56:17;2.22;;;1.75;;
65656;SDS011;57397;50.096;14.404;2022-10-16T07:58:44;1.65;;;1.35;;
65656;SDS011;57397;50.096;14.404;2022-10-16T08:01:12;2.58;;;1.63;;
65656;SDS011;57397;50.096;14.404;2022-10-16T08:03:43;2.63;;;1.65;;
65656;SDS011;57397;50.096;14.404;2022-10-16T08:06:09;1.80;;;1.38;;
65656;SDS011;57397;50.096;14.404;2022-10-16T08:08:35;2.22;;;1.65;;
65656;SDS011;57397;50.096;14.404;2022-10-16T08:11:01;2.80;;;1.65;;
65656;SDS011;57397;50.096;14.404;2022-10-16T08:13:31;2.30;;;1.77;;
65656;SDS011;57397;50.096;14.404;2022-10-16T08:15:57;1.98;;;1.50;;
65656;SDS011;57397;50.096;14.404;2022-10-16T08:18:22;2.05;;;1.50;;
65656;SDS011;57397;50.096;14.404;2022-10-16T08:20:57;3.15;;;1.50;;
65656;SDS011;57397;50.096;14.404;2022-10-16T08:23:24;2.33;;;1.45;;
65656;SDS011;57397;50.096;14.404;2022-10-16T08:25:51;2.13;;;1.60;;
65656;SDS011;57397;50.096;14.404;2022-10-16T08:28:17;1.70;;;1.40;;
65656;SDS011;57397;50.096;14.404;2022-10-16T08:30:43;1.92;;;1.42;;
65656;SDS011;57397;50.096;14.404;2022-10-16T08:33:08;1.60;;;1.30;;
65656;SDS011;57397;50.096;14.404;2022-10-16T08:35:35;2.67;;;1.55;;
65656;SDS011;57397;50.096;14.404;2022-10-16T08:38:02;2.05;;;1.40;;
65656;SDS011;57397;50.096;14.404;2022-10-16T08:40:32;2.20;;;1.30;;
65656;SDS011;57397;50.096;14.404;2022-10-16T08:48:33;1.63;;;1.20;;
65656;SDS011;57397;50.096;14.404;2022-10-16T08:51:04;1.83;;;1.20;;
65656;SDS011;57397;50.096;14.404;2022-10-16T08:56:04;2.28;;;1.20;;
65656;SDS011;57397;50.096;14.404;2022-10-16T08:58:30;1.75;;;1.20;;
65656;SDS011;57397;50.096;14.404;2022-10-16T09:00:57;2.05;;;1.40;;
65656;SDS011;57397;50.096;14.404;2022-10-16T09:08:57;1.45;;;1.10;;
65656;SDS011;57397;50.096;14.404;2022-10-16T09:16:44;1.80;;;1.20;;
65656;SDS011;57397;50.096;14.404;2022-10-16T09:19:13;1.30;;;1.20;;
65656;SDS011;57397;50.096;14.404;2022-10-16T09:21:45;1.88;;;1.38;;
65656;SDS011;57397;50.096;14.404;2022-10-16T09:24:19;1.63;;;1.23;;
65656;SDS011;57397;50.096;14.404;2022-10-16T09:26:46;1.73;;;1.30;;
65656;SDS011;57397;50.096;14.404;2022-10-16T09:29:13;1.88;;;1.30;;
65656;SDS011;57397;50.096;14.404;2022-10-16T09:31:39;1.70;;;1.30;;
65656;SDS011;57397;50.096;14.404;2022-10-16T09:34:04;2.50;;;1.40;;
65656;SDS011;57397;50.096;14.404;2022-10-16T09:36:40;1.67;;;1.30;;
65656;SDS011;57397;50.096;14.404;2022-10-16T09:39:09;1.70;;;1.15;;
65656;SDS011;57397;50.096;14.404;2022-10-16T09:41:37;1.60;;;1.13;;
65656;SDS011;57397;50.096;14.404;2022-10-16T09:46:48;1.42;;;1.05;;
65656;SDS011;57397;50.096;14.404;2022-10-16T09:49:23;1.40;;;1.02;;
65656;SDS011;57397;50.096;14.404;2022-10-16T09:51:50;1.50;;;1.20;;
65656;SDS011;57397;50.096;14.404;2022-10-16T09:54:19;1.63;;;1.30;;
65656;SDS011;57397;50.096;14.404;2022-10-16T09:56:46;1.63;;;1.30;;
65656;SDS011;57397;50.096;14.404;2022-10-16T09:59:20;1.40;;;1.20;;
65656;SDS011;57397;50.096;14.404;2022-10-16T10:01:52;2.47;;;1.45;;
65656;SDS011;57397;50.096;14.404;2022-10-16T10:04:19;8.15;;;3.88;;
65656;SDS011;57397;50.096;14.404;2022-10-16T10:06:46;4.22;;;2.10;;
65656;SDS011;57397;50.096;14.404;2022-10-16T10:09:15;2.80;;;1.70;;
65656;SDS011;57397;50.096;14.404;2022-10-16T10:11:55;2.15;;;1.58;;
65656;SDS011;57397;50.096;14.404;2022-10-16T10:14:22;2.63;;;1.60;;
65656;SDS011;57397;50.096;14.404;2022-10-16T10:16:50;1.88;;;1.33;;
65656;SDS011;57397;50.096;14.404;2022-10-16T10:19:21;2.75;;;1.50;;
65656;SDS011;57397;50.096;14.404;2022-10-16T10:21:48;3.88;;;1.60;;
65656;SDS011;57397;50.096;14.404;2022-10-16T10:24:15;1.67;;;1.13;;
65656;SDS011;57397;50.096;14.404;2022-10-16T10:26:45;1.70;;;1.40;;
65656;SDS011;57397;50.096;14.404;2022-10-16T10:29:17;2.53;;;1.60;;
65656;SDS011;57397;50.096;14.404;2022-10-16T10:32:03;2.25;;;1.38;;
65656;SDS011;57397;50.096;14.404;2022-10-16T10:39:54;2.25;;;1.63;;
65656;SDS011;57397;50.096;14.404;2022-10-16T10:42:57;2.30;;;1.40;;
65656;SDS011;57397;50.096;14.404;2022-10-16T10:45:44;2.38;;;1.30;;
65656;SDS011;57397;50.096;14.404;2022-10-16T10:48:15;1.88;;;1.40;;
65656;SDS011;57397;50.096;14.404;2022-10-16T10:50:57;2.30;;;1.38;;
65656;SDS011;57397;50.096;14.404;2022-10-16T10:55:54;2.35;;;1.40;;
65656;SDS011;57397;50.096;14.404;2022-10-16T11:01:29;2.17;;;1.42;;
65656;SDS011;57397;50.096;14.404;2022-10-16T11:07:05;2.38;;;1.40;;
65656;SDS011;57397;50.096;14.404;2022-10-16T11:09:41;2.17;;;1.40;;
65656;SDS011;57397;50.096;14.404;2022-10-16T11:17:22;3.08;;;1.40;;
65656;SDS011;57397;50.096;14.404;2022-10-16T11:19:58;1.75;;;1.10;;
65656;SDS011;57397;50.096;14.404;2022-10-16T11:22:37;2.35;;;1.27;;
65656;SDS011;57397;50.096;14.404;2022-10-16T11:30:22;1.80;;;1.25;;
65656;SDS011;57397;50.096;14.404;2022-10-16T11:35:43;1.77;;;1.23;;
65656;SDS011;57397;50.096;14.404;2022-10-16T11:38:31;2.13;;;1.30;;
65656;SDS011;57397;50.096;14.404;2022-10-16T11:41:22;1.90;;;1.00;;
65656;SDS011;57397;50.096;14.404;2022-10-16T11:52:54;2.20;;;1.30;;
65656;SDS011;57397;50.096;14.404;2022-10-16T11:55:50;2.58;;;1.40;;
65656;SDS011;57397;50.096;14.404;2022-10-16T11:58:27;1.70;;;1.20;;
65656;SDS011;57397;50.096;14.404;2022-10-16T12:03:35;1.30;;;1.02;;
65656;SDS011;57397;50.096;14.404;2022-10-16T12:09:21;2.00;;;1.25;;
65656;SDS011;57397;50.096;14.404;2022-10-16T12:11:50;2.03;;;1.17;;
65656;SDS011;57397;50.096;14.404;2022-10-16T12:16:57;1.75;;;1.15;;
65656;SDS011;57397;50.096;14.404;2022-10-16T12:19:31;1.40;;;1.20;;
65656;SDS011;57397;50.096;14.404;2022-10-16T12:22:00;1.92;;;1.10;;
65656;SDS011;57397;50.096;14.404;2022-10-16T12:27:27;1.42;;;1.20;;
65656;SDS011;57397;50.096;14.404;2022-10-16T12:29:58;1.63;;;1.30;;
65656;SDS011;57397;50.096;14.404;2022-10-16T12:34:55;2.00;;;1.20;;
65656;SDS011;57397;50.096;14.404;2022-10-16T12:37:25;2.55;;;1.17;;
65656;SDS011;57397;50.096;14.404;2022-10-16T12:39:53;1.73;;;1.20;;
65656;SDS011;57397;50.096;14.404;2022-10-16T12:44:51;2.20;;;1.10;;
65656;SDS011;57397;50.096;14.404;2022-10-16T12:47:19;2.97;;;1.10;;
65656;SDS011;57397;50.096;14.404;2022-10-16T12:49:57;1.55;;;1.08;;
65656;SDS011;57397;50.096;14.404;2022-10-16T12:52:28;1.90;;;1.60;;
65656;SDS011;57397;50.096;14.404;2022-10-16T12:55:02;2.38;;;1.10;;
65656;SDS011;57397;50.096;14.404;2022-10-16T13:00:39;2.47;;;1.15;;
65656;SDS011;57397;50.096;14.404;2022-10-16T13:08:39;1.80;;;1.20;;
65656;SDS011;57397;50.096;14.404;2022-10-16T13:11:26;1.48;;;1.00;;
65656;SDS011;57397;50.096;14.404;2022-10-16T13:22:39;2.40;;;1.20;;
65656;SDS011;57397;50.096;14.404;2022-10-16T13:30:26;1.30;;;1.10;;
65656;SDS011;57397;50.096;14.404;2022-10-16T13:32:58;1.95;;;1.17;;
65656;SDS011;57397;50.096;14.404;2022-10-16T13:35:48;1.67;;;1.15;;
65656;SDS011;57397;50.096;14.404;2022-10-16T13:38:19;1.50;;;1.10;;
65656;SDS011;57397;50.096;14.404;2022-10-16T13:43:17;1.63;;;1.17;;
65656;SDS011;57397;50.096;14.404;2022-10-16T13:45:52;1.63;;;1.00;;
65656;SDS011;57397;50.096;14.404;2022-10-16T13:48:18;1.20;;;0.90;;
65656;SDS011;57397;50.096;14.404;2022-10-16T13:50:44;1.80;;;1.08;;
65656;SDS011;57397;50.096;14.404;2022-10-16T13:53:13;1.70;;;1.02;;
65656;SDS011;57397;50.096;14.404;2022-10-16T13:55:39;1.48;;;1.00;;
65656;SDS011;57397;50.096;14.404;2022-10-16T13:58:08;1.60;;;0.88;;
65656;SDS011;57397;50.096;14.404;2022-10-16T14:00:38;1.00;;;0.80;;
65656;SDS011;57397;50.096;14.404;2022-10-16T14:03:04;1.70;;;1.33;;
65656;SDS011;57397;50.096;14.404;2022-10-16T14:05:32;1.13;;;0.90;;
65656;SDS011;57397;50.096;14.404;2022-10-16T14:07:58;1.40;;;0.95;;
65656;SDS011;57397;50.096;14.404;2022-10-16T14:10:27;1.02;;;0.90;;
65656;SDS011;57397;50.096;14.404;2022-10-16T14:13:04;1.38;;;0.80;;
65656;SDS011;57397;50.096;14.404;2022-10-16T14:15:31;1.30;;;1.00;;
65656;SDS011;57397;50.096;14.404;2022-10-16T14:17:58;1.50;;;1.10;;
65656;SDS011;57397;50.096;14.404;2022-10-16T14:20:25;1.58;;;1.10;;
65656;SDS011;57397;50.096;14.404;2022-10-16T14:22:59;1.58;;;1.13;;
65656;SDS011;57397;50.096;14.404;2022-10-16T14:25:27;1.42;;;1.10;;
65656;SDS011;57397;50.096;14.404;2022-10-16T14:30:53;1.63;;;1.00;;
65656;SDS011;57397;50.096;14.404;2022-10-16T14:38:39;1.45;;;1.00;;
65656;SDS011;57397;50.096;14.404;2022-10-16T14:41:13;1.38;;;1.00;;
65656;SDS011;57397;50.096;14.404;2022-10-16T14:43:39;1.20;;;0.82;;
65656;SDS011;57397;50.096;14.404;2022-10-16T14:46:12;1.50;;;1.10;;
65656;SDS011;57397;50.096;14.404;2022-10-16T14:48:42;1.30;;;0.90;;
65656;SDS011;57397;50.096;14.404;2022-10-16T14:51:13;1.10;;;0.90;;
65656;SDS011;57397;50.096;14.404;2022-10-16T14:53:39;1.10;;;0.82;;
65656;SDS011;57397;50.096;14.404;2022-10-16T14:56:08;1.20;;;0.98;;
65656;SDS011;57397;50.096;14.404;2022-10-16T14:58:41;1.20;;;1.00;;
65656;SDS011;57397;50.096;14.404;2022-10-16T15:01:07;1.23;;;1.00;;
65656;SDS011;57397;50.096;14.404;2022-10-16T15:03:36;0.98;;;0.80;;
65656;SDS011;57397;50.096;14.404;2022-10-16T15:06:01;1.33;;;0.90;;
65656;SDS011;57397;50.096;14.404;2022-10-16T15:08:27;1.20;;;1.00;;
65656;SDS011;57397;50.096;14.404;2022-10-16T15:10:52;1.17;;;0.90;;
65656;SDS011;57397;50.096;14.404;2022-10-16T15:13:18;0.90;;;0.80;;
65656;SDS011;57397;50.096;14.404;2022-10-16T15:15:44;1.30;;;1.10;;
65656;SDS011;57397;50.096;14.404;2022-10-16T15:18:10;1.33;;;1.10;;
65656;SDS011;57397;50.096;14.404;2022-10-16T15:20:37;1.48;;;0.98;;
65656;SDS011;57397;50.096;14.404;2022-10-16T15:23:05;1.30;;;1.00;;
65656;SDS011;57397;50.096;14.404;2022-10-16T15:25:37;1.10;;;0.80;;
65656;SDS011;57397;50.096;14.404;2022-10-16T15:28:05;1.20;;;0.90;;
65656;SDS011;57397;50.096;14.404;2022-10-16T15:30:31;1.23;;;0.82;;
65656;SDS011;57397;50.096;14.404;2022-10-16T15:32:58;1.40;;;0.82;;
65656;SDS011;57397;50.096;14.404;2022-10-16T15:35:23;1.35;;;1.00;;
65656;SDS011;57397;50.096;14.404;2022-10-16T15:37:49;1.10;;;0.90;;
65656;SDS011;57397;50.096;14.404;2022-10-16T15:40:15;1.30;;;1.00;;
65656;SDS011;57397;50.096;14.404;2022-10-16T15:42:42;1.10;;;0.88;;
65656;SDS011;57397;50.096;14.404;2022-10-16T15:45:08;1.30;;;1.00;;
65656;SDS011;57397;50.096;14.404;2022-10-16T15:47:34;1.27;;;0.95;;
65656;SDS011;57397;50.096;14.404;2022-10-16T15:50:00;1.77;;;0.90;;
65656;SDS011;57397;50.096;14.404;2022-10-16T15:52:25;1.30;;;0.88;;
65656;SDS011;57397;50.096;14.404;2022-10-16T15:54:51;1.27;;;0.90;;
65656;SDS011;57397;50.096;14.404;2022-10-16T15:57:17;2.08;;;1.00;;
65656;SDS011;57397;50.096;14.404;2022-10-16T15:59:42;1.75;;;1.00;;
65656;SDS011;57397;50.096;14.404;2022-10-16T16:02:08;1.20;;;0.95;;
65656;SDS011;57397;50.096;14.404;2022-10-16T16:04:34;1.40;;;0.90;;
65656;SDS011;57397;50.096;14.404;2022-10-16T16:07:00;2.22;;;0.82;;
65656;SDS011;57397;50.096;14.404;2022-10-16T16:09:26;1.48;;;0.90;;
65656;SDS011;57397;50.096;14.404;2022-10-16T16:11:51;1.92;;;0.90;;
65656;SDS011;57397;50.096;14.404;2022-10-16T16:14:17;1.25;;;0.93;;
65656;SDS011;57397;50.096;14.404;2022-10-16T16:16:43;2.10;;;0.90;;
65656;SDS011;57397;50.096;14.404;2022-10-16T16:19:08;1.30;;;1.00;;
65656;SDS011;57397;50.096;14.404;2022-10-16T16:21:34;1.30;;;0.85;;
65656;SDS011;57397;50.096;14.404;2022-10-16T16:24:00;1.33;;;1.00;;
65656;SDS011;57397;50.096;14.404;2022-10-16T16:26:29;1.38;;;0.90;;
65656;SDS011;57397;50.096;14.404;2022-10-16T16:29:01;1.10;;;0.90;;
65656;SDS011;57397;50.096;14.404;2022-10-16T16:31:28;1.40;;;1.00;;
65656;SDS011;57397;50.096;14.404;2022-10-16T16:33:54;1.52;;;0.90;;
65656;SDS011;57397;50.096;14.404;2022-10-16T16:36:21;2.70;;;1.27;;
65656;SDS011;57397;50.096;14.404;2022-10-16T16:38:47;3.10;;;1.30;;
65656;SDS011;57397;50.096;14.404;2022-10-16T16:41:13;7.97;;;1.98;;
65656;SDS011;57397;50.096;14.404;2022-10-16T16:43:40;10.52;;;1.77;;